Time;durP1;ratioP1;P1;durP2;ratioP2;P2;SDS_P1;SDS_P2;PMS_P1;PMS_P2;Temp;Humidity;BMP_temperature;BMP_pressure;BME280_temperature;BME280_humidity;BME280_pressure;Samples;Min_cycle;Max_cycle;Signal;HPM_P1;HPM_P2
2023/04/16 00:00:06;;;;;;;7.57;5.00;;;9.20;57.60;;;;;;5093388;28;20687;-71
2023/04/16 00:02:32;;;;;;;10.17;4.93;;;9.20;63.70;;;;;;5093230;28;20176;-70
2023/04/16 00:04:58;;;;;;;7.37;4.80;;;9.10;66.60;;;;;;5092328;28;20183;-72
2023/04/16 00:07:23;;;;;;;11.30;4.97;;;9.20;69.70;;;;;;5093476;28;20551;-69
2023/04/16 00:09:49;;;;;;;9.60;5.23;;;9.20;64.30;;;;;;5093356;28;20176;-71
2023/04/16 00:12:15;;;;;;;8.50;5.00;;;9.10;62.20;;;;;;5093551;28;20172;-71
2023/04/16 00:14:42;;;;;;;7.77;5.00;;;9.20;60.20;;;;;;5093720;28;20167;-70
2023/04/16 00:17:11;;;;;;;7.27;4.67;;;9.10;57.60;;;;;;5093392;28;20192;-71
2023/04/16 00:19:37;;;;;;;7.77;4.63;;;9.20;55.50;;;;;;5093492;28;20180;-71
2023/04/16 00:22:03;;;;;;;9.23;5.13;;;9.20;50.10;;;;;;5093388;28;20175;-71
2023/04/16 00:24:31;;;;;;;9.30;5.17;;;9.20;48.60;;;;;;5092048;28;20176;-71
2023/04/16 00:26:57;;;;;;;9.50;4.90;;;9.20;49.00;;;;;;5093268;28;20245;-71
2023/04/16 00:29:22;;;;;;;7.27;5.00;;;9.20;47.60;;;;;;5093339;28;20176;-71
2023/04/16 00:31:48;;;;;;;12.63;4.80;;;9.30;46.50;;;;;;5093134;28;20172;-71
2023/04/16 00:34:14;;;;;;;8.43;4.80;;;9.40;47.70;;;;;;5093259;28;20217;-71
2023/04/16 00:36:39;;;;;;;12.07;5.63;;;9.40;47.20;;;;;;5093234;28;20172;-71
2023/04/16 00:39:05;;;;;;;18.37;5.43;;;9.50;45.10;;;;;;5093107;28;20223;-71
2023/04/16 00:41:30;;;;;;;7.07;4.90;;;9.40;46.20;;;;;;5092962;28;20179;-71
2023/04/16 00:43:56;;;;;;;13.10;6.13;;;9.40;45.00;;;;;;5093454;28;20206;-71
2023/04/16 00:46:23;;;;;;;9.40;5.87;;;9.50;44.10;;;;;;5092761;28;20172;-71
2023/04/16 00:48:50;;;;;;;9.37;6.33;;;9.50;48.40;;;;;;5093315;28;20211;-71
2023/04/16 00:51:21;;;;;;;10.50;6.27;;;9.50;49.20;;;;;;5092963;28;20195;-71
2023/04/16 00:53:47;;;;;;;17.90;7.43;;;9.50;51.90;;;;;;5093230;28;20168;-71
2023/04/16 00:56:13;;;;;;;10.07;5.90;;;9.50;48.70;;;;;;5092888;28;20183;-71
2023/04/16 00:58:39;;;;;;;12.03;5.50;;;9.40;47.10;;;;;;5093382;28;20164;-71
2023/04/16 01:01:05;;;;;;;9.77;5.80;;;9.30;46.20;;;;;;5092602;28;20179;-70
2023/04/16 01:03:40;;;;;;;9.23;5.20;;;9.30;42.10;;;;;;5093101;28;20156;-71
2023/04/16 01:06:06;;;;;;;11.73;5.33;;;9.30;43.10;;;;;;5092772;28;20167;-71
2023/04/16 01:08:32;;;;;;;8.40;4.57;;;9.30;40.10;;;;;;5092776;28;20203;-71
2023/04/16 01:10:58;;;;;;;8.00;4.03;;;9.30;33.50;;;;;;5092704;28;20160;-70
2023/04/16 01:13:23;;;;;;;8.27;4.53;;;9.20;31.00;;;;;;5096231;28;20562;-70
2023/04/16 01:15:49;;;;;;;5.30;4.00;;;9.20;33.60;;;;;;5096515;28;20164;-71
2023/04/16 01:18:15;;;;;;;6.33;3.47;;;9.20;32.60;;;;;;5097189;28;20214;-71
2023/04/16 01:20:41;;;;;;;3.10;2.83;;;9.20;30.00;;;;;;5096747;28;20647;-71
2023/04/16 01:23:06;;;;;;;5.17;3.00;;;9.30;27.60;;;;;;5096829;28;20289;-71
2023/04/16 01:25:32;;;;;;;9.50;3.30;;;9.20;27.10;;;;;;5096840;28;20566;-70
2023/04/16 01:27:58;;;;;;;5.23;3.20;;;9.20;27.20;;;;;;5096397;28;20615;-71
2023/04/16 01:30:27;;;;;;;6.90;3.40;;;9.30;29.10;;;;;;5096356;28;20539;-71
2023/04/16 01:32:56;;;;;;;6.80;3.40;;;9.30;26.90;;;;;;5096648;28;20203;-71
2023/04/16 01:35:22;;;;;;;7.07;3.63;;;9.30;31.00;;;;;;5096384;28;20179;-71
2023/04/16 01:37:49;;;;;;;6.43;4.00;;;9.20;30.40;;;;;;5096444;28;20192;-70
2023/04/16 01:40:15;;;;;;;12.80;4.00;;;9.20;34.20;;;;;;5096162;28;20302;-70
2023/04/16 01:42:41;;;;;;;4.10;3.70;;;9.30;35.60;;;;;;5096337;28;20251;-70
2023/04/16 01:45:09;;;;;;;8.00;4.30;;;9.30;35.80;;;;;;5096076;28;20221;-70
2023/04/16 01:47:35;;;;;;;11.13;4.10;;;9.30;37.10;;;;;;5096223;28;20200;-70
2023/04/16 01:50:02;;;;;;;8.60;4.30;;;9.40;34.80;;;;;;5094939;28;20226;-70
2023/04/16 01:52:27;;;;;;;7.93;4.40;;;9.40;34.30;;;;;;5096066;28;20172;-70
2023/04/16 01:54:53;;;;;;;7.93;4.40;;;9.50;30.30;;;;;;5096232;28;20198;-70
2023/04/16 01:57:19;;;;;;;5.87;4.43;;;9.50;29.40;;;;;;5096075;28;20202;-70
2023/04/16 01:59:44;;;;;;;8.37;4.70;;;9.40;32.00;;;;;;5094947;28;20195;-70
2023/04/16 02:02:12;;;;;;;10.07;4.93;;;9.40;30.20;;;;;;5094483;28;20180;-70
2023/04/16 02:04:39;;;;;;;6.23;4.40;;;9.40;30.70;;;;;;5096152;28;20160;-70
2023/04/16 02:07:05;;;;;;;5.57;4.27;;;9.40;31.70;;;;;;5095613;28;20192;-70
2023/04/16 02:09:34;;;;;;;5.63;4.90;;;9.40;33.60;;;;;;5096039;28;20172;-70
2023/04/16 02:12:03;;;;;;;4.53;4.13;;;9.50;34.00;;;;;;5095381;28;20653;-70
2023/04/16 02:14:29;;;;;;;10.00;4.73;;;9.40;31.20;;;;;;5095517;28;20172;-70
2023/04/16 02:16:55;;;;;;;6.30;3.90;;;9.50;32.90;;;;;;5095479;28;20175;-70
2023/04/16 02:19:20;;;;;;;7.10;4.00;;;9.40;36.70;;;;;;5094462;28;20192;-70
2023/04/16 02:21:47;;;;;;;6.57;4.10;;;9.50;33.80;;;;;;5095642;28;20246;-71
2023/04/16 02:24:13;;;;;;;3.70;3.40;;;9.40;34.00;;;;;;5095026;28;20186;-70
2023/04/16 02:26:39;;;;;;;7.60;3.93;;;9.40;37.50;;;;;;5095306;28;20171;-70
2023/04/16 02:29:08;;;;;;;7.97;3.67;;;9.30;41.30;;;;;;5095609;28;20658;-72
2023/04/16 02:31:34;;;;;;;5.17;3.83;;;9.30;43.20;;;;;;5095584;28;20352;-71
2023/04/16 02:33:59;;;;;;;4.90;3.40;;;9.40;45.80;;;;;;5095723;28;20203;-71
2023/04/16 02:36:28;;;;;;;5.50;3.90;;;9.40;43.40;;;;;;5094184;28;20160;-71
2023/04/16 02:38:54;;;;;;;8.63;4.17;;;9.40;42.40;;;;;;5095110;28;20200;-71
2023/04/16 02:41:19;;;;;;;5.17;4.07;;;9.50;44.60;;;;;;5094953;28;20251;-71
2023/04/16 02:43:45;;;;;;;5.37;3.50;;;9.50;42.30;;;;;;5094155;28;20180;-71
2023/04/16 02:46:11;;;;;;;4.80;3.80;;;9.50;41.10;;;;;;5095296;28;20591;-70
2023/04/16 02:48:39;;;;;;;3.90;3.60;;;9.50;44.60;;;;;;5095221;28;20216;-71
2023/04/16 02:51:05;;;;;;;5.40;4.00;;;9.40;49.90;;;;;;5093898;28;20176;-70
2023/04/16 02:53:31;;;;;;;6.00;4.10;;;9.40;50.10;;;;;;5094172;28;20263;-70
2023/04/16 02:55:56;;;;;;;6.13;4.30;;;9.40;54.50;;;;;;5094535;28;20164;-71
2023/04/16 02:58:26;;;;;;;5.80;4.53;;;9.40;57.70;;;;;;5095241;28;20172;-71
2023/04/16 03:00:53;;;;;;;7.00;4.50;;;9.50;58.10;;;;;;5094876;28;20241;-71
2023/04/16 03:03:20;;;;;;;8.63;4.07;;;9.50;55.60;;;;;;5094909;28;20187;-70
2023/04/16 03:05:48;;;;;;;10.67;4.27;;;9.50;52.60;;;;;;5094748;28;20164;-70
2023/04/16 03:08:14;;;;;;;7.70;4.33;;;9.50;53.90;;;;;;5093421;28;20229;-70
2023/04/16 03:10:40;;;;;;;8.73;4.23;;;9.40;54.80;;;;;;5094613;28;20168;-71
2023/04/16 03:13:13;;;;;;;7.43;4.30;;;9.40;56.30;;;;;;5094732;28;20176;-70
2023/04/16 03:15:46;;;;;;;5.50;3.90;;;9.50;55.50;;;;;;5093556;28;20311;-70
2023/04/16 03:18:15;;;;;;;9.47;3.90;;;9.50;55.40;;;;;;5094522;28;20248;-71
2023/04/16 03:20:40;;;;;;;3.93;3.20;;;9.50;53.40;;;;;;5094361;28;20164;-70
2023/04/16 03:23:06;;;;;;;7.40;3.57;;;9.60;50.70;;;;;;5094389;28;20175;-70
2023/04/16 03:25:35;;;;;;;9.40;3.40;;;9.60;56.50;;;;;;5092845;28;20175;-70
2023/04/16 03:28:02;;;;;;;7.00;3.07;;;9.60;54.50;;;;;;5094041;28;20218;-71
2023/04/16 03:30:30;;;;;;;7.03;2.90;;;9.70;55.30;;;;;;5094782;28;20247;-71
2023/04/16 03:32:56;;;;;;;9.40;3.30;;;9.70;52.30;;;;;;5094036;28;20160;-70
2023/04/16 03:35:21;;;;;;;6.07;3.10;;;9.60;51.40;;;;;;5092994;28;20688;-70
2023/04/16 03:37:48;;;;;;;10.13;3.13;;;9.50;60.10;;;;;;5094027;28;20206;-70
2023/04/16 03:40:14;;;;;;;7.00;2.80;;;9.50;64.10;;;;;;5093837;28;20219;-70
2023/04/16 03:42:43;;;;;;;5.50;2.50;;;9.50;64.80;;;;;;5093879;28;20186;-70
2023/04/16 03:45:09;;;;;;;5.43;2.50;;;9.50;65.30;;;;;;5094234;28;20620;-70
2023/04/16 03:47:35;;;;;;;4.23;2.40;;;9.40;69.50;;;;;;5092195;28;20216;-70
2023/04/16 03:50:02;;;;;;;8.37;2.73;;;9.50;67.50;;;;;;5093847;28;20304;-69
2023/04/16 03:52:28;;;;;;;5.43;2.83;;;9.50;67.50;;;;;;5093837;28;20217;-69
2023/04/16 03:54:54;;;;;;;6.87;2.60;;;9.50;65.80;;;;;;5093570;28;20522;-71
2023/04/16 03:57:19;;;;;;;3.93;2.50;;;9.50;63.10;;;;;;5093464;28;20176;-71
2023/04/16 03:59:45;;;;;;;6.07;2.77;;;9.50;61.80;;;;;;5075871;28;20168;-70
2023/04/16 04:02:10;;;;;;;3.93;2.60;;;9.50;62.20;;;;;;5091966;28;20681;-71
2023/04/16 04:04:36;;;;;;;3.87;2.50;;;9.50;63.40;;;;;;5092296;28;20560;-71
2023/04/16 04:07:02;;;;;;;5.53;2.50;;;9.40;66.70;;;;;;5093363;28;20179;-70
2023/04/16 04:09:27;;;;;;;6.90;2.70;;;9.40;71.50;;;;;;5093362;28;20630;-71
2023/04/16 04:11:56;;;;;;;5.67;2.70;;;9.30;75.10;;;;;;5092821;28;20180;-70
2023/04/16 04:14:24;;;;;;;10.27;3.00;;;9.30;76.60;;;;;;5093621;28;20168;-71
2023/04/16 04:16:50;;;;;;;4.13;2.97;;;9.20;76.80;;;;;;5093361;28;20657;-70
2023/04/16 04:19:15;;;;;;;7.27;3.00;;;9.20;81.20;;;;;;5093216;28;20167;-70
2023/04/16 04:21:44;;;;;;;5.67;3.20;;;9.30;85.90;;;;;;5092923;28;20172;-71
2023/04/16 04:24:12;;;;;;;5.23;3.27;;;9.30;87.10;;;;;;5093094;28;20200;-70
2023/04/16 04:26:38;;;;;;;6.63;3.73;;;9.30;90.60;;;;;;5091805;28;20204;-69
2023/04/16 04:29:04;;;;;;;4.87;3.80;;;9.40;94.30;;;;;;5092949;28;20221;-70
2023/04/16 04:31:30;;;;;;;5.10;3.93;;;9.40;97.40;;;;;;5093074;28;20168;-70
2023/04/16 04:33:55;;;;;;;4.80;3.83;;;9.50;98.70;;;;;;5091864;28;20183;-70
2023/04/16 04:36:41;;;;;;;8.43;4.83;;;9.40;99.90;;;;;;5093140;28;20164;-71
2023/04/16 04:39:07;;;;;;;5.93;4.63;;;9.40;99.90;;;;;;5091329;28;20262;-71
2023/04/16 04:41:32;;;;;;;9.03;4.47;;;9.20;99.90;;;;;;5093120;28;20175;-70
2023/04/16 04:44:01;;;;;;;6.80;5.00;;;9.20;99.90;;;;;;5092728;28;20209;-70
2023/04/16 04:46:29;;;;;;;7.27;4.87;;;9.20;99.90;;;;;;5091348;28;20581;-70
2023/04/16 04:48:55;;;;;;;6.10;4.80;;;9.20;99.90;;;;;;5092354;28;20211;-70
2023/04/16 04:51:23;;;;;;;9.50;4.67;;;9.20;99.90;;;;;;5092682;28;20172;-70
2023/04/16 04:53:48;;;;;;;5.97;4.20;;;9.20;99.90;;;;;;5092354;28;20180;-71
2023/04/16 04:56:14;;;;;;;12.57;5.00;;;9.20;99.90;;;;;;5091698;28;20510;-70
2023/04/16 04:58:40;;;;;;;5.17;3.43;;;9.20;99.90;;;;;;5092535;28;20172;-70
2023/04/16 05:01:06;;;;;;;9.20;3.70;;;9.20;99.90;;;;;;5091683;28;20575;-70
2023/04/16 05:03:32;;;;;;;6.27;3.50;;;9.20;99.90;;;;;;5091536;28;20179;-70
2023/04/16 05:05:57;;;;;;;7.67;3.20;;;9.20;99.90;;;;;;5092156;28;20168;-70
2023/04/16 05:08:23;;;;;;;8.37;3.20;;;9.20;99.90;;;;;;5092617;28;20207;-71
2023/04/16 05:10:48;;;;;;;5.33;3.10;;;9.30;99.90;;;;;;5092767;28;20176;-70
2023/04/16 05:13:20;;;;;;;6.30;2.63;;;9.40;97.80;;;;;;5091177;28;20180;-70
2023/04/16 05:15:46;;;;;;;5.70;2.40;;;9.40;96.70;;;;;;5093321;28;20497;-71
2023/04/16 05:18:11;;;;;;;6.90;2.80;;;9.40;95.50;;;;;;5091466;28;20182;-71
2023/04/16 05:20:37;;;;;;;8.53;2.40;;;9.50;94.00;;;;;;5091728;28;20217;-70
2023/04/16 05:23:02;;;;;;;6.30;2.80;;;9.50;94.10;;;;;;5092509;28;20179;-71
2023/04/16 05:25:28;;;;;;;6.70;2.57;;;9.50;93.80;;;;;;5092716;28;20172;-70
2023/04/16 05:27:57;;;;;;;4.70;2.40;;;9.40;92.80;;;;;;5091193;28;20293;-71
2023/04/16 05:30:22;;;;;;;8.00;2.53;;;9.40;92.40;;;;;;5092582;28;20171;-70
2023/04/16 05:32:48;;;;;;;8.30;2.83;;;9.50;89.80;;;;;;5092545;28;20172;-71
2023/04/16 05:35:13;;;;;;;5.37;2.40;;;9.40;90.10;;;;;;5092113;28;20631;-71
2023/04/16 05:37:39;;;;;;;7.10;2.43;;;9.50;91.10;;;;;;5092273;28;20195;-70
2023/04/16 05:40:05;;;;;;;4.63;2.10;;;9.40;91.70;;;;;;5090918;28;20224;-70
2023/04/16 05:42:31;;;;;;;5.77;2.60;;;9.40;91.30;;;;;;5092573;28;20285;-70
2023/04/16 05:44:57;;;;;;;6.10;2.17;;;9.40;92.10;;;;;;5090961;28;20288;-71
2023/04/16 05:47:25;;;;;;;8.07;2.60;;;9.50;92.20;;;;;;5092298;28;20634;-70
2023/04/16 05:49:51;;;;;;;4.67;2.00;;;9.50;90.80;;;;;;5091920;28;20176;-70
2023/04/16 05:52:16;;;;;;;5.53;2.60;;;9.50;92.40;;;;;;5092027;28;20179;-70
2023/04/16 05:54:42;;;;;;;7.00;2.67;;;9.60;89.00;;;;;;5092285;28;20566;-70
2023/04/16 05:57:08;;;;;;;3.93;2.00;;;9.60;88.00;;;;;;5090735;28;20263;-70
2023/04/16 05:59:36;;;;;;;8.17;2.40;;;9.50;88.10;;;;;;5093975;28;20541;-70
2023/04/16 06:02:01;;;;;;;6.73;2.73;;;9.50;91.20;;;;;;5096046;28;20250;-69
2023/04/16 06:04:30;;;;;;;7.80;2.40;;;9.50;93.70;;;;;;5095244;28;20250;-70
2023/04/16 06:06:55;;;;;;;6.17;2.60;;;9.50;95.00;;;;;;5094653;28;20168;-70
2023/04/16 06:09:21;;;;;;;3.80;2.93;;;9.50;97.90;;;;;;5095628;28;20179;-71
2023/04/16 06:11:47;;;;;;;5.17;2.77;;;9.50;99.90;;;;;;5095621;28;20255;-71
2023/04/16 06:14:13;;;;;;;6.90;3.70;;;9.50;99.90;;;;;;5095606;28;20630;-70
2023/04/16 06:16:41;;;;;;;5.93;2.80;;;9.50;99.90;;;;;;5096015;28;20259;-70
2023/04/16 06:19:07;;;;;;;5.23;2.90;;;9.40;99.90;;;;;;5094826;28;20188;-71
2023/04/16 06:21:33;;;;;;;5.53;3.17;;;9.40;99.90;;;;;;5095417;28;20658;-71
2023/04/16 06:23:59;;;;;;;5.43;3.00;;;9.40;99.90;;;;;;5094026;28;20187;-70
2023/04/16 06:26:25;;;;;;;8.77;3.60;;;9.50;99.90;;;;;;5095213;28;20171;-70
2023/04/16 06:28:51;;;;;;;7.67;3.70;;;9.50;99.90;;;;;;5095366;28;20207;-70
2023/04/16 06:31:16;;;;;;;5.40;3.10;;;9.60;99.90;;;;;;5095682;28;20273;-71
2023/04/16 06:33:44;;;;;;;6.87;3.47;;;9.50;99.90;;;;;;5093670;28;20535;-69
2023/04/16 06:36:11;;;;;;;5.03;3.63;;;9.40;99.90;;;;;;5095038;28;20682;-71
2023/04/16 06:38:45;;;;;;;7.70;3.27;;;9.50;99.90;;;;;;5095217;28;20268;-71
2023/04/16 06:41:12;;;;;;;4.97;3.50;;;9.50;99.90;;;;;;5095440;28;20171;-71
2023/04/16 06:43:38;;;;;;;7.73;3.90;;;9.40;99.90;;;;;;5094724;28;20191;-71
2023/04/16 06:46:04;;;;;;;6.17;4.10;;;9.30;99.90;;;;;;5095032;28;20679;-70
2023/04/16 06:48:29;;;;;;;9.67;4.53;;;9.30;99.90;;;;;;5094687;28;20231;-71
2023/04/16 06:50:55;;;;;;;7.27;4.87;;;9.40;99.90;;;;;;5092850;28;20176;-71
2023/04/16 06:53:21;;;;;;;9.33;5.20;;;9.20;99.90;;;;;;5095039;28;20601;-72
2023/04/16 06:55:47;;;;;;;8.33;5.30;;;9.30;99.90;;;;;;5094918;28;20168;-71
2023/04/16 06:58:12;;;;;;;16.97;6.20;;;9.50;99.90;;;;;;5092966;28;20241;-72
2023/04/16 07:00:38;;;;;;;15.03;6.40;;;9.40;99.90;;;;;;5094748;28;20168;-71
2023/04/16 07:03:03;;;;;;;18.20;7.07;;;9.40;99.90;;;;;;5094559;28;20516;-71
2023/04/16 07:05:29;;;;;;;12.17;6.90;;;9.40;99.90;;;;;;5094425;28;20229;-70
2023/04/16 07:07:58;;;;;;;13.77;6.87;;;9.40;99.90;;;;;;5094842;28;20210;-71
2023/04/16 07:10:24;;;;;;;13.13;7.43;;;9.60;99.90;;;;;;5093440;28;20172;-71
2023/04/16 07:12:49;;;;;;;14.80;7.63;;;9.60;99.90;;;;;;5094681;28;20254;-71
2023/04/16 07:15:18;;;;;;;14.93;6.63;;;9.60;99.90;;;;;;5094326;28;20164;-70
2023/04/16 07:17:43;;;;;;;12.27;6.10;;;9.50;99.90;;;;;;5094292;28;20195;-69
2023/04/16 07:20:09;;;;;;;13.13;6.70;;;9.60;99.90;;;;;;5093695;28;20576;-70
2023/04/16 07:22:35;;;;;;;15.37;6.63;;;9.50;99.90;;;;;;5094131;28;20168;-70
2023/04/16 07:25:01;;;;;;;10.37;6.53;;;9.60;99.90;;;;;;5092618;28;20313;-72
2023/04/16 07:27:26;;;;;;;9.97;6.63;;;9.60;99.90;;;;;;5092853;28;20210;-70
2023/04/16 07:29:54;;;;;;;15.80;6.70;;;9.60;99.90;;;;;;5092854;28;20176;-70
2023/04/16 07:32:21;;;;;;;12.73;6.77;;;9.60;99.90;;;;;;5093464;28;20176;-70
2023/04/16 07:34:47;;;;;;;13.83;6.90;;;9.50;99.90;;;;;;5093950;28;20159;-69
2023/04/16 07:37:12;;;;;;;10.07;6.60;;;9.40;99.90;;;;;;5093819;28;20606;-70
2023/04/16 07:39:38;;;;;;;16.03;6.87;;;9.50;99.90;;;;;;5093621;28;20219;-70
2023/04/16 07:42:03;;;;;;;18.50;7.60;;;9.50;99.90;;;;;;5093730;28;20202;-71
2023/04/16 07:44:29;;;;;;;9.67;7.03;;;9.50;99.90;;;;;;5093595;28;20196;-71
2023/04/16 07:46:55;;;;;;;14.23;8.00;;;9.70;99.90;;;;;;5093525;28;20180;-71
2023/04/16 07:49:20;;;;;;;15.67;7.67;;;9.60;99.90;;;;;;5093871;28;20222;-70
2023/04/16 07:51:46;;;;;;;17.83;8.03;;;9.70;99.90;;;;;;5093524;28;20172;-70
2023/04/16 07:54:14;;;;;;;16.83;7.00;;;9.70;99.90;;;;;;5092728;28;20666;-71
2023/04/16 07:56:40;;;;;;;12.73;7.20;;;9.90;99.90;;;;;;5092487;28;20164;-71
2023/04/16 07:59:12;;;;;;;12.77;7.00;;;9.90;99.90;;;;;;5093017;28;20225;-70
2023/04/16 08:01:37;;;;;;;12.90;6.87;;;9.90;99.90;;;;;;5092727;28;20250;-72
2023/04/16 08:04:03;;;;;;;14.03;6.93;;;10.00;99.90;;;;;;5092633;28;20244;-70
2023/04/16 08:06:29;;;;;;;15.00;7.30;;;10.10;99.90;;;;;;5093058;28;20164;-71
2023/04/16 08:08:58;;;;;;;15.67;7.90;;;10.10;99.90;;;;;;5092115;28;20215;-71
2023/04/16 08:11:23;;;;;;;20.30;9.63;;;10.10;99.90;;;;;;5093086;28;20164;-71
2023/04/16 08:13:49;;;;;;;19.10;8.23;;;10.10;99.90;;;;;;5092626;28;20176;-70
2023/04/16 08:16:14;;;;;;;14.50;9.33;;;10.10;99.90;;;;;;5092684;28;20168;-71
2023/04/16 08:18:40;;;;;;;15.63;8.97;;;10.00;99.90;;;;;;5093286;28;20224;-71
2023/04/16 08:21:09;;;;;;;18.20;9.37;;;9.90;99.90;;;;;;5092416;28;20160;-71
2023/04/16 08:23:34;;;;;;;20.73;10.30;;;10.00;99.90;;;;;;5092171;28;20295;-70
2023/04/16 08:26:00;;;;;;;19.10;9.87;;;9.90;99.90;;;;;;5092147;28;20290;-73
2023/04/16 08:28:26;;;;;;;17.40;9.87;;;9.90;99.90;;;;;;5092647;28;20222;-71
2023/04/16 08:30:58;;;;;;;17.87;10.23;;;10.00;99.90;;;;;;5091311;28;20172;-71
2023/04/16 08:33:23;;;;;;;22.83;9.03;;;10.00;99.90;;;;;;5093118;28;20317;-69
2023/04/16 08:35:49;;;;;;;16.13;8.93;;;10.00;99.90;;;;;;5090844;28;20315;-71
2023/04/16 08:38:15;;;;;;;14.07;8.70;;;10.00;99.90;;;;;;5092376;28;20647;-71
2023/04/16 08:40:44;;;;;;;21.10;9.60;;;10.00;99.90;;;;;;5092234;28;20547;-70
2023/04/16 08:43:13;;;;;;;15.67;9.13;;;10.10;99.90;;;;;;5092494;28;20179;-72
2023/04/16 08:45:43;;;;;;;12.37;8.70;;;10.10;99.90;;;;;;5092084;28;20247;-71
2023/04/16 08:48:11;;;;;;;16.57;10.13;;;10.10;99.90;;;;;;5092463;28;20211;-71
2023/04/16 08:50:37;;;;;;;17.80;10.07;;;10.00;99.90;;;;;;5092150;28;20160;-71
2023/04/16 08:53:07;;;;;;;17.67;9.83;;;10.00;99.90;;;;;;5092742;28;20170;-72
2023/04/16 08:55:48;;;;;;;19.00;11.07;;;10.10;99.90;;;;;;5092332;28;20174;-71
2023/04/16 08:58:18;;;;;;;16.13;10.60;;;10.10;99.90;;;;;;5092353;28;20167;-71
2023/04/16 09:00:45;;;;;;;23.90;11.13;;;10.10;99.90;;;;;;5092235;28;20166;-71
2023/04/16 09:03:11;;;;;;;17.67;10.37;;;10.10;99.90;;;;;;5092954;28;20168;-71
2023/04/16 09:05:37;;;;;;;16.57;10.03;;;10.20;99.90;;;;;;5092460;28;20251;-71
2023/04/16 09:08:06;;;;;;;22.27;11.30;;;10.10;99.90;;;;;;5092455;28;20277;-71
2023/04/16 09:10:32;;;;;;;15.47;10.37;;;10.20;99.90;;;;;;5092191;28;20164;-71
2023/04/16 09:12:58;;;;;;;17.00;9.93;;;10.20;99.90;;;;;;5092165;28;20172;-70
2023/04/16 09:15:28;;;;;;;17.10;10.43;;;10.20;99.90;;;;;;5092541;28;20163;-71
2023/04/16 09:17:55;;;;;;;16.97;10.77;;;10.30;99.90;;;;;;5091107;28;20171;-71
2023/04/16 09:20:27;;;;;;;19.67;10.03;;;10.30;99.90;;;;;;5090763;28;20168;-71
2023/04/16 09:22:52;;;;;;;22.80;10.17;;;10.30;99.90;;;;;;5091842;28;20176;-70
2023/04/16 09:25:21;;;;;;;15.70;10.20;;;10.20;99.90;;;;;;5091620;28;20176;-70
2023/04/16 09:27:49;;;;;;;16.97;10.03;;;10.20;99.90;;;;;;5090619;28;20358;-70
2023/04/16 09:30:24;;;;;;;21.30;10.37;;;10.10;99.90;;;;;;5091707;28;20209;-70
2023/04/16 09:32:59;;;;;;;15.70;10.23;;;10.30;99.90;;;;;;5092800;28;20182;-72
2023/04/16 09:35:25;;;;;;;19.40;10.30;;;10.30;99.90;;;;;;5095982;28;20172;-71
2023/04/16 09:37:55;;;;;;;17.40;9.67;;;10.30;99.90;;;;;;5095669;28;20389;-71
2023/04/16 09:40:26;;;;;;;20.67;10.10;;;10.30;99.90;;;;;;5095321;28;20251;-70
2023/04/16 09:42:55;;;;;;;17.63;10.50;;;10.30;99.90;;;;;;5096152;28;20642;-71
2023/04/16 09:45:21;;;;;;;14.30;9.80;;;10.30;99.90;;;;;;5094292;28;20176;-72
2023/04/16 09:47:46;;;;;;;18.73;11.17;;;10.30;99.90;;;;;;5094635;28;20675;-71
2023/04/16 09:50:17;;;;;;;15.23;9.67;;;10.20;99.90;;;;;;5094998;28;20578;-72
2023/04/16 09:52:44;;;;;;;19.73;10.37;;;10.20;99.90;;;;;;5095696;28;20203;-73
2023/04/16 09:55:13;;;;;;;18.17;10.27;;;10.10;99.90;;;;;;5094038;28;20553;-71
2023/04/16 09:57:41;;;;;;;14.03;9.50;;;10.10;99.90;;;;;;5095225;28;20271;-71
2023/04/16 10:00:08;;;;;;;15.30;10.77;;;10.20;99.90;;;;;;5094682;28;20183;-70
2023/04/16 10:02:37;;;;;;;16.03;10.00;;;10.20;99.90;;;;;;5095526;28;20176;-71
2023/04/16 10:05:03;;;;;;;17.77;10.03;;;10.30;99.90;;;;;;5095103;28;20164;-70
2023/04/16 10:07:33;;;;;;;18.37;10.80;;;10.30;99.90;;;;;;5095196;28;20211;-71
2023/04/16 10:09:59;;;;;;;18.77;9.67;;;10.40;99.90;;;;;;5095290;28;20251;-72
2023/04/16 10:12:26;;;;;;;14.37;9.60;;;10.50;99.90;;;;;;5095029;28;20262;-72
2023/04/16 10:14:51;;;;;;;20.67;11.27;;;10.40;99.90;;;;;;5095303;28;20164;-71
2023/04/16 10:17:18;;;;;;;15.23;10.70;;;10.30;99.90;;;;;;5093660;28;20275;-72
2023/04/16 10:19:45;;;;;;;15.20;10.80;;;10.40;99.90;;;;;;5095417;28;20168;-72
2023/04/16 10:22:10;;;;;;;16.93;10.63;;;10.50;99.90;;;;;;5094879;28;20168;-71
2023/04/16 10:24:37;;;;;;;13.13;9.87;;;10.50;99.90;;;;;;5094891;28;20218;-72
2023/04/16 10:27:02;;;;;;;16.20;9.83;;;10.50;99.90;;;;;;5094208;28;20186;-73
2023/04/16 10:29:32;;;;;;;15.00;9.30;;;10.50;99.90;;;;;;5094555;28;20172;-71
2023/04/16 10:31:59;;;;;;;14.27;9.60;;;10.70;99.90;;;;;;5094961;28;20176;-72
2023/04/16 10:34:30;;;;;;;15.87;9.87;;;10.70;99.90;;;;;;5095090;28;20253;-72
2023/04/16 10:36:55;;;;;;;15.40;9.50;;;10.70;99.90;;;;;;5094313;28;20183;-71
2023/04/16 10:39:24;;;;;;;14.07;9.50;;;10.80;99.90;;;;;;5094074;28;20630;-72
2023/04/16 10:42:04;;;;;;;14.00;10.17;;;10.80;99.90;;;;;;5094825;28;20170;-71
2023/04/16 10:44:31;;;;;;;14.77;10.80;;;10.80;99.90;;;;;;5093817;28;20172;-71
2023/04/16 10:46:58;;;;;;;12.50;9.43;;;10.80;99.90;;;;;;5093353;28;20172;-71
2023/04/16 10:49:27;;;;;;;15.87;9.50;;;10.70;99.90;;;;;;5094134;28;20515;-71
2023/04/16 10:51:58;;;;;;;17.03;10.80;;;10.70;99.90;;;;;;5094474;28;20172;-70
2023/04/16 10:54:26;;;;;;;20.00;11.73;;;10.70;99.90;;;;;;5094787;28;20172;-71
2023/04/16 10:56:53;;;;;;;17.63;11.13;;;10.80;99.90;;;;;;5094439;28;20172;-72
2023/04/16 10:59:20;;;;;;;14.30;10.07;;;10.90;99.90;;;;;;5092162;28;20237;-72
2023/04/16 11:01:51;;;;;;;14.20;10.47;;;10.90;99.90;;;;;;5092899;28;20647;-71
2023/04/16 11:04:19;;;;;;;15.10;10.00;;;11.00;99.90;;;;;;5094146;28;20167;-73
2023/04/16 11:07:15;;;;;;;15.33;9.93;;;10.90;99.90;;;;;;5094558;28;20179;-72
2023/04/16 11:09:46;;;;;;;16.50;9.17;;;11.00;99.90;;;;;;5094140;28;20207;-72
2023/04/16 11:12:18;;;;;;;15.30;9.80;;;10.90;99.90;;;;;;5093995;28;20258;-72
2023/04/16 11:15:11;;;;;;;16.10;9.83;;;11.10;99.90;;;;;;5094176;28;20176;-72
2023/04/16 11:17:38;;;;;;;15.53;11.03;;;10.90;99.90;;;;;;5091350;28;20263;-71
2023/04/16 11:20:09;;;;;;;18.60;10.77;;;11.00;99.90;;;;;;5094176;28;20171;-72
2023/04/16 11:22:35;;;;;;;16.77;11.30;;;11.10;99.90;;;;;;5094019;28;20184;-72
2023/04/16 11:25:01;;;;;;;20.20;10.63;;;11.10;99.90;;;;;;5093845;28;20160;-72
2023/04/16 11:27:32;;;;;;;16.27;9.77;;;11.10;99.90;;;;;;5093664;28;20199;-73
2023/04/16 11:29:57;;;;;;;11.57;8.93;;;11.00;99.20;;;;;;5093457;28;20579;-71
2023/04/16 11:32:23;;;;;;;14.37;9.40;;;11.00;99.80;;;;;;5093944;28;20175;-72
2023/04/16 11:34:50;;;;;;;18.77;10.33;;;11.00;99.90;;;;;;5094278;28;20168;-73
2023/04/16 11:37:30;;;;;;;15.43;9.87;;;11.00;99.90;;;;;;5092928;28;20172;-72
2023/04/16 11:39:55;;;;;;;16.40;10.17;;;11.10;99.90;;;;;;5093150;28;20242;-71
2023/04/16 11:42:21;;;;;;;14.40;11.07;;;11.20;98.10;;;;;;5093575;28;20172;-72
2023/04/16 11:44:55;;;;;;;17.73;10.83;;;11.30;97.60;;;;;;5094019;28;20168;-72
2023/04/16 11:47:23;;;;;;;17.40;11.10;;;11.40;94.30;;;;;;5093529;28;20212;-72
2023/04/16 11:49:49;;;;;;;18.33;10.90;;;11.20;96.40;;;;;;5093425;28;20179;-72
2023/04/16 11:52:29;;;;;;;19.97;11.13;;;11.10;99.60;;;;;;5092379;28;20185;-72
2023/04/16 11:54:55;;;;;;;27.27;12.43;;;11.20;99.10;;;;;;5093883;28;20266;-73
2023/04/16 11:57:28;;;;;;;15.53;11.03;;;11.30;99.90;;;;;;5092607;28;20164;-72
2023/04/16 11:59:58;;;;;;;18.50;10.13;;;11.20;97.30;;;;;;5093310;28;20183;-72
2023/04/16 12:02:38;;;;;;;18.53;11.27;;;11.30;98.00;;;;;;5092929;28;20168;-74
2023/04/16 12:05:06;;;;;;;22.80;13.27;;;11.10;99.00;;;;;;5093261;28;20167;-71
2023/04/16 12:07:43;;;;;;;20.03;11.77;;;11.20;99.90;;;;;;5092959;28;20192;-71
2023/04/16 12:10:09;;;;;;;13.90;10.43;;;11.10;99.90;;;;;;5092440;28;20633;-71
2023/04/16 12:12:37;;;;;;;17.20;10.93;;;11.20;99.90;;;;;;5093150;28;20264;-72
2023/04/16 12:15:03;;;;;;;18.30;11.07;;;11.10;99.90;;;;;;5092687;28;20168;-72
2023/04/16 12:17:32;;;;;;;16.77;11.30;;;11.20;99.90;;;;;;5093051;28;20172;-72
2023/04/16 12:19:59;;;;;;;19.03;11.60;;;11.30;99.90;;;;;;5092666;28;20187;-71
2023/04/16 12:22:36;;;;;;;17.03;10.67;;;11.30;99.90;;;;;;5092600;28;20199;-72
2023/04/16 12:25:14;;;;;;;18.00;10.70;;;11.30;97.40;;;;;;5093198;28;20714;-71
2023/04/16 12:27:54;;;;;;;15.27;10.93;;;11.30;99.90;;;;;;5091117;28;20231;-73
2023/04/16 12:30:25;;;;;;;18.77;10.43;;;11.20;96.90;;;;;;5091668;28;20171;-70
2023/04/16 12:33:11;;;;;;;12.13;9.23;;;11.30;97.80;;;;;;5093124;28;20195;-72
2023/04/16 12:35:37;;;;;;;17.30;9.73;;;11.30;98.00;;;;;;5092828;28;20193;-72
2023/04/16 12:38:03;;;;;;;18.70;9.60;;;11.40;96.40;;;;;;5092443;28;20266;-71
2023/04/16 12:40:28;;;;;;;16.60;10.50;;;11.40;95.40;;;;;;5091691;28;20683;-72
2023/04/16 12:42:54;;;;;;;18.10;10.17;;;11.50;91.90;;;;;;5092659;28;20172;-72
2023/04/16 12:45:20;;;;;;;17.77;10.37;;;11.40;91.00;;;;;;5092711;28;20172;-73